Time;durP1;ratioP1;P1;durP2;ratioP2;P2;SDS_P1;SDS_P2;PMS_P1;PMS_P2;Temp;Humidity;BMP_temperature;BMP_pressure;BME280_temperature;BME280_humidity;BME280_pressure;Samples;Min_cycle;Max_cycle;Signal;HPM_P1;HPM_P2
2022/04/01 00:00:08;;;;;;;14.00;4.45;;;;;;;3.55;56.41;98403.53;5067713;28;20066;-65
2022/04/01 00:02:35;;;;;;;15.07;5.60;;;;;;;3.58;56.22;98406.72;5067665;28;20064;-65
2022/04/01 00:05:00;;;;;;;26.95;5.05;;;;;;;3.56;56.66;98403.44;5069143;28;20561;-66
2022/04/01 00:07:25;;;;;;;19.52;5.15;;;;;;;3.61;56.81;98403.94;5070600;28;20031;-65
2022/04/01 00:09:51;;;;;;;14.30;4.72;;;;;;;3.54;56.65;98400.09;5071924;28;20458;-67
2022/04/01 00:12:16;;;;;;;17.05;5.07;;;;;;;3.52;57.36;98404.59;5070273;28;20047;-65
2022/04/01 00:14:42;;;;;;;11.18;4.68;;;;;;;3.50;57.28;98401.25;5069667;28;20104;-66
2022/04/01 00:17:08;;;;;;;17.65;4.93;;;;;;;3.49;56.56;98398.78;5067085;28;20049;-66
2022/04/01 00:19:33;;;;;;;11.75;5.22;;;;;;;3.47;56.84;98398.03;5067906;28;20021;-67
2022/04/01 00:21:58;;;;;;;16.55;5.70;;;;;;;3.48;56.96;98394.50;5069467;28;20025;-66
2022/04/01 00:24:24;;;;;;;17.65;4.90;;;;;;;3.47;56.59;98400.63;5069233;28;20066;-65
2022/04/01 00:26:50;;;;;;;21.95;5.97;;;;;;;3.47;56.55;98404.03;5069314;28;20028;-67
2022/04/01 00:29:15;;;;;;;21.58;5.68;;;;;;;3.43;56.82;98402.59;5069204;28;20036;-66
2022/04/01 00:32:01;;;;;;;24.83;6.35;;;;;;;3.46;57.42;98406.75;5069144;28;20028;-67
2022/04/01 00:34:34;;;;;;;19.48;5.22;;;;;;;3.43;59.05;98397.41;5062384;28;20070;-66
2022/04/01 00:37:01;;;;;;;16.42;5.70;;;;;;;3.40;58.53;98405.41;5069520;28;20040;-65
2022/04/01 00:39:31;;;;;;;18.80;6.07;;;;;;;3.42;59.22;98411.31;5051226;28;20059;-67
2022/04/01 00:41:58;;;;;;;19.42;5.65;;;;;;;3.41;59.96;98409.63;5069004;28;20059;-66
2022/04/01 00:44:26;;;;;;;16.17;5.32;;;;;;;3.43;60.44;98412.97;5068523;28;20029;-66
2022/04/01 00:46:53;;;;;;;19.10;5.38;;;;;;;3.37;60.52;98409.03;5068402;28;20032;-67
2022/04/01 00:49:20;;;;;;;17.52;5.05;;;;;;;3.35;60.61;98403.13;5071755;28;20081;-65
2022/04/01 00:51:49;;;;;;;18.20;6.63;;;;;;;3.35;59.79;98402.31;5071637;28;20033;-65
2022/04/01 00:54:16;;;;;;;15.23;5.95;;;;;;;3.31;59.00;98399.09;5070919;28;20035;-65
2022/04/01 00:56:42;;;;;;;15.48;5.30;;;;;;;3.27;58.26;98402.81;5069038;28;20040;-65
2022/04/01 00:59:08;;;;;;;12.95;5.63;;;;;;;3.21;57.64;98397.22;5069579;28;20526;-64
2022/04/01 01:01:35;;;;;;;16.52;5.13;;;;;;;3.21;58.44;98402.41;5083727;22;20080;-66
2022/04/01 01:04:08;;;;;;;15.48;4.60;;;;;;;3.20;58.12;98405.94;5051643;28;20056;-70
2022/04/01 01:06:40;;;;;;;16.42;4.85;;;;;;;3.18;57.46;98400.84;5063981;28;20363;-70
2022/04/01 01:09:05;;;;;;;17.63;5.38;;;;;;;3.18;58.14;98407.78;5069406;28;20028;-65
2022/04/01 01:11:31;;;;;;;20.88;5.07;;;;;;;3.19;58.92;98406.84;5070456;28;20032;-68
2022/04/01 01:13:57;;;;;;;12.65;5.28;;;;;;;3.17;58.21;98401.78;5052207;28;20480;-69
2022/04/01 01:16:23;;;;;;;16.10;5.43;;;;;;;3.13;57.75;98403.75;5066846;28;20016;-69
2022/04/01 01:19:00;;;;;;;24.08;5.53;;;;;;;3.21;58.21;98407.56;5070030;28;20098;-70
2022/04/01 01:21:26;;;;;;;21.80;5.65;;;;;;;3.19;57.64;98405.09;5064522;28;20029;-71
2022/04/01 01:23:52;;;;;;;14.52;4.82;;;;;;;3.16;58.24;98402.72;5066227;28;20082;-70
2022/04/01 01:26:18;;;;;;;17.70;5.57;;;;;;;3.15;58.14;98396.72;5070020;28;20024;-70
2022/04/01 01:28:44;;;;;;;11.15;4.90;;;;;;;3.16;57.31;98387.19;5069694;28;20044;-68
2022/04/01 01:31:10;;;;;;;10.70;4.88;;;;;;;3.15;57.37;98391.53;5071027;28;20539;-70
2022/04/01 01:33:35;;;;;;;20.85;5.70;;;;;;;3.14;57.73;98397.63;5050414;28;20060;-71
2022/04/01 01:36:00;;;;;;;18.75;5.38;;;;;;;3.17;57.11;98396.59;5069990;28;20059;-70
2022/04/01 01:38:25;;;;;;;14.77;5.60;;;;;;;3.17;57.70;98400.94;5069698;28;20034;-69
2022/04/01 01:40:53;;;;;;;13.90;4.75;;;;;;;3.15;57.25;98399.31;5069838;28;20076;-68
2022/04/01 01:43:19;;;;;;;14.13;5.13;;;;;;;3.17;57.45;98399.19;5069250;28;20040;-68
2022/04/01 01:45:44;;;;;;;21.85;6.50;;;;;;;3.15;56.85;98388.94;5070396;28;20383;-68
2022/04/01 01:48:09;;;;;;;15.48;5.28;;;;;;;3.16;56.24;98389.75;5068942;28;20043;-70
2022/04/01 01:56:04;;;;;;;15.88;5.30;;;;;;;3.20;57.02;98385.22;5069349;28;20043;-68
2022/04/01 01:58:29;;;;;;;21.45;5.57;;;;;;;3.19;56.77;98391.31;5069032;28;20489;-69
2022/04/01 02:00:55;;;;;;;20.17;5.03;;;;;;;3.15;57.41;98380.31;5069595;28;20040;-69
2022/04/01 02:03:20;;;;;;;21.10;5.72;;;;;;;3.14;57.01;98376.09;5049074;28;21032;-67
2022/04/01 02:05:46;;;;;;;11.23;4.95;;;;;;;3.13;56.48;98380.44;5049034;28;20575;-69
2022/04/01 02:08:12;;;;;;;15.20;5.57;;;;;;;3.10;56.37;98379.81;5067685;28;20082;-68
2022/04/01 02:10:37;;;;;;;16.30;5.05;;;;;;;3.13;56.43;98377.84;5067828;28;20020;-67
2022/04/01 02:13:03;;;;;;;14.98;5.70;;;;;;;3.09;55.60;98373.00;5049816;28;20029;-68
2022/04/01 02:15:28;;;;;;;16.85;4.65;;;;;;;3.13;55.53;98382.19;5073759;28;20094;-69
2022/04/01 02:17:54;;;;;;;15.10;5.10;;;;;;;3.07;54.76;98378.25;5064954;28;20040;-67
2022/04/01 02:20:19;;;;;;;14.98;4.22;;;;;;;3.09;54.58;98381.56;5068240;28;20047;-71
2022/04/01 02:22:44;;;;;;;18.75;5.18;;;;;;;3.04;54.66;98388.84;5067742;28;20033;-69
2022/04/01 02:25:13;;;;;;;16.92;5.47;;;;;;;3.02;53.96;98369.97;5050198;28;20025;-68
2022/04/01 02:27:38;;;;;;;12.93;5.50;;;;;;;3.04;52.91;98375.03;5068029;28;20032;-69
2022/04/01 02:30:10;;;;;;;12.40;4.70;;;;;;;3.02;53.12;98375.16;5067723;28;20433;-70
2022/04/01 02:32:42;;;;;;;11.98;4.97;;;;;;;3.03;51.51;98379.38;5067505;28;20029;-69
2022/04/01 02:35:09;;;;;;;15.20;4.82;;;;;;;2.99;51.42;98377.13;5067403;28;20124;-68
2022/04/01 02:37:35;;;;;;;13.73;4.43;;;;;;;2.94;51.11;98380.03;5068363;28;20044;-70
2022/04/01 02:40:01;;;;;;;12.02;4.13;;;;;;;2.90;50.53;98381.16;5067874;28;20534;-71
2022/04/01 02:42:26;;;;;;;15.57;3.95;;;;;;;2.93;50.73;98391.31;5067566;28;20028;-69
2022/04/01 02:44:52;;;;;;;11.98;4.60;;;;;;;2.91;50.26;98381.03;5067373;28;20406;-68
2022/04/01 02:47:18;;;;;;;21.85;4.63;;;;;;;2.90;49.96;98383.75;5050393;28;20066;-67
2022/04/01 02:49:43;;;;;;;14.23;4.28;;;;;;;2.88;49.70;98377.81;5067722;28;20040;-69
2022/04/01 02:52:08;;;;;;;14.20;4.68;;;;;;;2.85;49.26;98373.66;5068590;28;20385;-70
2022/04/01 02:54:34;;;;;;;10.13;3.72;;;;;;;2.86;49.55;98379.69;5066453;28;20039;-69
2022/04/01 02:57:00;;;;;;;14.05;4.35;;;;;;;2.84;49.33;98382.38;5066693;28;20036;-69
2022/04/01 02:59:26;;;;;;;12.13;4.03;;;;;;;2.84;48.50;98381.56;5067009;28;20037;-70
2022/04/01 03:01:51;;;;;;;20.27;5.38;;;;;;;2.81;48.61;98390.34;5029377;28;1078871;-66
2022/04/01 03:04:16;;;;;;;18.63;4.78;;;;;;;2.80;49.73;98400.81;5067625;28;20048;-69
2022/04/01 03:06:45;;;;;;;12.48;4.05;;;;;;;2.78;49.43;98398.31;5068417;28;20167;-69
2022/04/01 03:09:11;;;;;;;24.85;5.43;;;;;;;2.80;49.05;98406.81;5067097;28;20041;-68
2022/04/01 03:11:37;;;;;;;14.38;5.32;;;;;;;2.77;48.35;98396.66;5067274;28;20452;-69
2022/04/01 03:14:08;;;;;;;12.63;3.80;;;;;;;2.75;48.61;98393.34;5068057;28;20064;-70
2022/04/01 03:16:34;;;;;;;11.15;4.57;;;;;;;2.76;48.23;98400.16;5069614;28;20478;-69
2022/04/01 03:19:00;;;;;;;10.52;4.35;;;;;;;2.79;48.73;98404.31;5067681;28;20382;-69
2022/04/01 03:21:26;;;;;;;12.75;4.13;;;;;;;2.75;48.26;98398.53;5068267;28;20037;-70
2022/04/01 03:23:52;;;;;;;12.25;4.57;;;;;;;2.74;48.44;98403.78;5064427;28;20029;-66
2022/04/01 03:26:18;;;;;;;20.40;4.55;;;;;;;2.74;48.47;98404.59;5068010;28;20032;-66
2022/04/01 03:28:43;;;;;;;10.20;4.05;;;;;;;2.72;47.51;98396.13;5067421;28;20598;-71
2022/04/01 03:31:09;;;;;;;14.10;4.85;;;;;;;2.73;48.12;98402.13;5069022;28;20020;-70
2022/04/01 03:33:36;;;;;;;18.23;4.65;;;;;;;2.70;48.02;98403.16;5066431;28;20044;-69
2022/04/01 03:36:03;;;;;;;14.13;4.18;;;;;;;2.69;47.58;98408.44;5068717;28;20094;-68
2022/04/01 03:38:30;;;;;;;15.23;3.92;;;;;;;2.70;47.29;98404.91;5071084;28;20048;-69
2022/04/01 03:40:56;;;;;;;11.07;4.07;;;;;;;2.69;47.74;98411.03;5073806;28;20090;-73
2022/04/01 03:43:23;;;;;;;11.27;3.55;;;;;;;2.72;48.20;98401.31;5091372;28;20028;-68
2022/04/01 03:45:50;;;;;;;11.18;4.00;;;;;;;2.69;47.57;98409.25;5080009;28;20048;-69
2022/04/01 03:48:28;;;;;;;10.57;3.80;;;;;;;2.65;47.91;98408.63;5067849;28;20040;-71
2022/04/01 03:50:59;;;;;;;13.05;3.80;;;;;;;2.69;48.50;98417.03;5068654;28;20087;-67
2022/04/01 03:53:29;;;;;;;15.68;3.97;;;;;;;2.67;47.83;98419.72;5065430;28;20032;-67
2022/04/01 03:55:56;;;;;;;13.15;4.38;;;;;;;2.69;47.83;98417.03;5065754;28;20033;-68
2022/04/01 03:58:27;;;;;;;13.35;4.78;;;;;;;2.65;47.96;98424.16;5067297;28;20024;-68
2022/04/01 04:00:53;;;;;;;13.63;4.78;;;;;;;2.65;48.39;98423.31;5067705;28;20041;-69
2022/04/01 04:03:18;;;;;;;10.20;4.18;;;;;;;2.65;48.44;98424.16;5065882;28;20497;-70
2022/04/01 04:05:47;;;;;;;7.55;3.33;;;;;;;2.62;48.61;98413.16;5067891;28;20032;-70
2022/04/01 04:08:17;;;;;;;9.18;4.22;;;;;;;2.61;48.67;98420.09;5067035;28;20478;-70
2022/04/01 04:10:46;;;;;;;9.23;3.22;;;;;;;2.59;48.96;98418.53;5067153;28;20101;-67
2022/04/01 04:13:13;;;;;;;12.85;3.92;;;;;;;2.54;48.82;98425.78;5066889;28;20500;-70
2022/04/01 04:16:09;;;;;;;18.48;4.07;;;;;;;2.55;49.06;98415.31;5074035;28;20040;-70
2022/04/01 04:18:45;;;;;;;14.40;4.38;;;;;;;2.52;48.68;98422.44;5066352;28;20032;-71
2022/04/01 04:21:15;;;;;;;15.93;4.05;;;;;;;2.51;49.29;98437.13;5048155;28;20048;-70
2022/04/01 04:23:50;;;;;;;10.68;3.67;;;;;;;2.55;49.21;98437.78;5066718;28;20032;-70
2022/04/01 04:26:29;;;;;;;13.50;4.22;;;;;;;2.50;49.65;98442.41;5071014;28;20025;-72
2022/04/01 04:29:06;;;;;;;11.25;4.28;;;;;;;2.52;49.34;98441.41;5070030;28;20032;-70
2022/04/01 04:31:35;;;;;;;10.05;3.72;;;;;;;2.47;49.40;98445.19;5066455;28;20066;-70
2022/04/01 04:34:04;;;;;;;12.05;4.05;;;;;;;2.49;49.21;98443.34;5069819;28;20425;-71
2022/04/01 04:36:40;;;;;;;12.43;3.72;;;;;;;2.41;49.07;98442.09;5069750;28;20075;-70
2022/04/01 04:39:09;;;;;;;11.45;3.97;;;;;;;2.43;49.21;98434.22;5071537;28;20086;-69
2022/04/01 04:41:35;;;;;;;9.60;3.50;;;;;;;2.41;49.91;98442.09;5070361;28;20032;-69
2022/04/01 04:44:01;;;;;;;13.30;4.82;;;;;;;2.42;49.27;98448.91;5070465;28;20517;-72
2022/04/01 04:46:27;;;;;;;12.95;4.13;;;;;;;2.43;49.44;98435.03;5070267;28;20048;-73
2022/04/01 04:48:54;;;;;;;11.30;3.67;;;;;;;2.39;49.19;98445.69;5070895;28;20016;-71
2022/04/01 04:51:24;;;;;;;10.93;3.92;;;;;;;2.35;49.33;98439.88;5068115;28;20056;-66
2022/04/01 04:53:50;;;;;;;13.00;3.50;;;;;;;2.33;49.50;98441.72;5069283;28;20055;-70
2022/04/01 04:56:17;;;;;;;10.60;4.07;;;;;;;2.35;49.65;98451.97;5068231;28;20095;-71
2022/04/01 04:58:43;;;;;;;10.52;3.90;;;;;;;2.34;49.66;98455.50;5069341;28;20028;-70
2022/04/01 05:01:20;;;;;;;11.18;4.20;;;;;;;2.36;49.53;98453.63;5070319;28;20051;-69
2022/04/01 05:04:12;;;;;;;12.38;4.10;;;;;;;2.41;49.58;98456.75;5066234;28;20044;-69
2022/04/01 05:06:52;;;;;;;15.20;4.05;;;;;;;2.41;50.22;98469.69;5048580;28;20635;-70
2022/04/01 05:09:41;;;;;;;12.98;4.13;;;;;;;2.36;50.49;98463.97;5048405;28;20037;-71
2022/04/01 05:12:22;;;;;;;17.00;4.63;;;;;;;2.40;50.44;98474.03;5070174;28;20052;-71
2022/04/01 05:15:00;;;;;;;8.30;3.92;;;;;;;2.37;50.83;98482.00;5041019;28;20059;-68
2022/04/01 05:17:35;;;;;;;14.45;4.40;;;;;;;2.35;50.63;98472.66;5060602;28;20696;-68
2022/04/01 05:20:02;;;;;;;13.05;3.92;;;;;;;2.29;50.72;98476.44;5061256;28;20040;-66
2022/04/01 05:22:48;;;;;;;14.27;4.40;;;;;;;2.39;51.09;98479.31;5084977;28;20043;-72
2022/04/01 05:25:18;;;;;;;16.23;4.47;;;;;;;2.44;51.07;98485.00;5074054;28;20115;-68
2022/04/01 05:27:48;;;;;;;8.52;3.72;;;;;;;2.48;51.14;98488.22;5077634;28;20082;-69
2022/04/01 05:30:16;;;;;;;11.65;4.50;;;;;;;2.48;50.68;98488.22;5060149;28;20123;-70
2022/04/01 05:32:57;;;;;;;20.40;4.30;;;;;;;2.38;50.59;98494.00;5069643;28;20033;-70
2022/04/01 05:35:24;;;;;;;23.02;4.60;;;;;;;2.42;50.79;98508.41;5069755;28;20124;-69
2022/04/01 05:37:50;;;;;;;9.20;3.63;;;;;;;2.44;50.26;98510.88;5069723;28;20040;-69
2022/04/01 05:40:16;;;;;;;17.00;4.32;;;;;;;2.37;50.14;98509.59;5067267;28;20038;-69
2022/04/01 05:42:44;;;;;;;13.68;3.92;;;;;;;2.36;49.74;98513.94;5076146;28;20029;-66
2022/04/01 05:45:10;;;;;;;9.00;3.85;;;;;;;2.31;49.79;98516.00;5081460;28;20040;-68
2022/04/01 05:47:36;;;;;;;13.75;4.20;;;;;;;2.30;49.88;98521.25;5049490;28;20044;-69
2022/04/01 05:50:02;;;;;;;22.77;4.22;;;;;;;2.16;49.74;98517.75;5068653;28;20393;-66
2022/04/01 05:52:28;;;;;;;7.97;3.47;;;;;;;2.12;49.68;98521.47;5068310;28;20020;-67
2022/04/01 05:54:56;;;;;;;10.95;4.70;;;;;;;2.19;49.84;98521.94;5068592;28;20036;-70
2022/04/01 05:57:21;;;;;;;13.85;4.00;;;;;;;2.19;49.50;98524.50;5068835;28;20402;-67
2022/04/01 05:59:47;;;;;;;11.07;3.70;;;;;;;2.17;49.81;98531.50;5068398;28;20044;-67
2022/04/01 06:02:50;;;;;;;11.57;4.03;;;;;;;2.15;49.41;98526.44;5067788;28;20049;-69
2022/04/01 06:05:18;;;;;;;16.27;4.90;;;;;;;2.17;50.18;98519.41;5069208;28;20441;-68
2022/04/01 06:07:54;;;;;;;9.33;4.20;;;;;;;2.13;49.72;98527.47;5069122;28;20052;-69
2022/04/01 06:10:38;;;;;;;11.30;3.80;;;;;;;2.06;50.30;98532.16;5073182;28;20261;-69
2022/04/01 06:13:34;;;;;;;9.55;4.15;;;;;;;2.10;50.36;98536.22;5077939;28;20417;-71
2022/04/01 06:16:02;;;;;;;11.98;4.53;;;;;;;2.08;50.06;98538.09;5079613;28;20043;-69
2022/04/01 06:18:33;;;;;;;16.10;5.30;;;;;;;2.05;50.42;98546.00;5067986;28;20059;-69
2022/04/01 06:21:03;;;;;;;18.52;4.68;;;;;;;2.03;50.50;98547.84;5069530;28;20112;-70
2022/04/01 06:24:01;;;;;;;12.07;4.13;;;;;;;2.07;50.76;98549.31;5068561;28;20036;-70
2022/04/01 06:26:28;;;;;;;11.15;4.15;;;;;;;2.09;50.72;98557.84;5064010;28;20027;-65
2022/04/01 06:29:16;;;;;;;15.50;5.82;;;;;;;2.02;50.95;98556.53;5068312;28;20052;-69
2022/04/01 06:31:57;;;;;;;18.75;5.60;;;;;;;1.91;51.26;98557.16;5048557;28;20020;-68
2022/04/01 06:34:36;;;;;;;12.55;4.65;;;;;;;1.96;51.22;98563.81;5068548;28;20039;-66
2022/04/01 06:37:04;;;;;;;18.33;7.75;;;;;;;2.03;52.05;98565.94;5068449;28;20072;-70
2022/04/01 06:39:43;;;;;;;10.10;4.80;;;;;;;1.99;51.90;98561.06;5069296;28;20112;-70
2022/04/01 06:42:19;;;;;;;14.25;4.72;;;;;;;2.05;52.45;98571.88;5069036;28;20261;-69
2022/04/01 06:44:45;;;;;;;10.05;3.95;;;;;;;2.04;52.12;98571.94;5068207;28;20036;-69
2022/04/01 06:47:10;;;;;;;13.50;4.65;;;;;;;2.11;52.27;98568.91;5068200;28;20051;-65
2022/04/01 06:49:36;;;;;;;19.45;4.88;;;;;;;2.04;51.66;98572.78;5068728;28;20029;-71
2022/04/01 06:52:02;;;;;;;8.32;4.10;;;;;;;2.01;52.59;98575.56;5051146;28;20120;-67
2022/04/01 06:54:28;;;;;;;8.75;3.80;;;;;;;1.99;52.22;98579.16;5066657;28;20090;-72
2022/04/01 06:56:53;;;;;;;14.07;4.40;;;;;;;1.94;52.29;98567.34;5067442;28;20045;-69
2022/04/01 06:59:18;;;;;;;11.20;4.00;;;;;;;2.02;52.18;98584.13;5067052;28;20533;-69
2022/04/01 07:01:51;;;;;;;13.00;4.25;;;;;;;1.93;52.89;98577.78;5068925;28;20036;-68
2022/04/01 07:04:17;;;;;;;13.32;5.47;;;;;;;1.96;52.45;98584.50;5068069;28;20108;-67
2022/04/01 07:06:42;;;;;;;15.35;4.15;;;;;;;1.93;52.87;98588.94;5068026;28;20054;-69
2022/04/01 07:09:07;;;;;;;10.07;4.18;;;;;;;1.90;53.25;98596.03;5065278;28;20043;-65
2022/04/01 07:11:34;;;;;;;21.80;4.28;;;;;;;1.84;52.71;98586.88;5069019;28;20498;-68
2022/04/01 07:13:59;;;;;;;18.63;4.18;;;;;;;1.86;53.29;98592.81;5067656;28;20031;-68
2022/04/01 07:16:24;;;;;;;8.20;3.25;;;;;;;1.84;53.60;98592.03;5063881;28;20550;-69
2022/04/01 07:18:50;;;;;;;11.35;4.10;;;;;;;1.88;53.52;98593.53;5064877;28;20024;-66
2022/04/01 07:21:15;;;;;;;13.43;4.47;;;;;;;1.88;53.77;98598.69;5050202;28;20040;-68
2022/04/01 07:23:40;;;;;;;12.82;4.72;;;;;;;1.91;53.66;98595.94;5044205;28;20036;-67
2022/04/01 07:26:06;;;;;;;16.23;4.78;;;;;;;1.90;53.91;98583.94;5061609;28;20035;-67
2022/04/01 07:28:32;;;;;;;14.00;4.70;;;;;;;2.00;54.74;98597.13;5060088;28;20552;-69
2022/04/01 07:30:58;;;;;;;12.55;5.22;;;;;;;2.09;53.85;98595.78;5062237;28;20090;-67
2022/04/01 07:33:24;;;;;;;13.00;5.00;;;;;;;1.99;52.79;98595.47;5059044;28;20499;-68
2022/04/01 07:35:49;;;;;;;13.18;4.90;;;;;;;1.87;53.13;98594.47;5061643;28;20032;-68
2022/04/01 07:38:15;;;;;;;19.17;4.70;;;;;;;1.84;53.55;98596.38;5042013;28;20037;-67
2022/04/01 07:40:42;;;;;;;12.07;5.78;;;;;;;1.74;54.08;98585.75;5026958;28;20021;-67
2022/04/01 07:43:07;;;;;;;13.00;4.75;;;;;;;1.58;55.60;98606.47;5060944;28;20021;-68
2022/04/01 07:45:37;;;;;;;16.55;5.13;;;;;;;1.45;57.51;98618.44;5061220;28;20028;-68
2022/04/01 07:48:02;;;;;;;13.70;5.18;;;;;;;1.47;58.29;98619.16;5076857;28;20096;-70
2022/04/01 07:50:27;;;;;;;9.43;4.18;;;;;;;1.50;58.65;98613.84;5087896;28;20040;-70
2022/04/01 07:52:53;;;;;;;10.55;3.95;;;;;;;1.51;58.64;98614.66;5081829;28;20501;-67
2022/04/01 07:55:19;;;;;;;14.23;4.75;;;;;;;1.53;58.71;98625.75;5062499;28;20493;-69
2022/04/01 07:57:47;;;;;;;23.60;5.20;;;;;;;1.53;58.68;98630.91;5059868;28;20041;-69
2022/04/01 08:00:17;;;;;;;10.13;4.88;;;;;;;1.60;59.06;98635.66;5065411;28;20076;-68
2022/04/01 08:02:47;;;;;;;14.13;4.50;;;;;;;1.69;57.96;98635.09;5062577;28;20535;-67
2022/04/01 08:05:12;;;;;;;11.73;3.80;;;;;;;1.81;57.88;98637.91;5064257;28;20142;-67
2022/04/01 08:07:38;;;;;;;11.18;4.15;;;;;;;1.89;56.52;98649.47;5062209;28;20039;-67
2022/04/01 08:10:05;;;;;;;13.02;4.57;;;;;;;1.93;58.63;98653.53;5066043;28;20394;-68
2022/04/01 08:12:35;;;;;;;12.50;4.97;;;;;;;1.76;59.40;98645.09;5064825;28;20506;-67
2022/04/01 08:15:01;;;;;;;13.70;5.38;;;;;;;1.82;60.08;98648.16;5062946;28;20062;-67
2022/04/01 08:17:27;;;;;;;17.52;5.32;;;;;;;1.79;60.39;98655.25;5060747;28;20102;-68
2022/04/01 08:19:52;;;;;;;12.48;4.90;;;;;;;1.74;60.68;98652.09;5045375;28;20036;-68
2022/04/01 08:22:18;;;;;;;15.07;5.43;;;;;;;1.70;61.16;98662.59;5064558;28;20024;-68
2022/04/01 08:24:44;;;;;;;14.45;5.32;;;;;;;1.58;62.96;98667.63;5063989;28;20044;-68
2022/04/01 08:27:09;;;;;;;17.63;6.68;;;;;;;1.45;63.09;98667.50;5045798;28;20024;-69
2022/04/01 08:29:36;;;;;;;13.35;4.75;;;;;;;1.45;63.29;98675.25;5065362;28;20036;-69
2022/04/01 08:32:05;;;;;;;11.00;4.78;;;;;;;1.58;62.75;98683.97;5064274;28;20033;-68
2022/04/01 08:34:30;;;;;;;12.07;5.10;;;;;;;1.50;63.11;98680.97;5062060;28;20060;-66
2022/04/01 08:36:56;;;;;;;11.13;4.75;;;;;;;1.32;63.17;98687.16;5064193;28;20074;-69
2022/04/01 08:39:22;;;;;;;12.45;4.72;;;;;;;1.29;62.79;98680.41;5064645;28;20036;-65
2022/04/01 08:41:48;;;;;;;10.13;5.00;;;;;;;1.32;62.54;98687.16;5064054;28;20085;-67
2022/04/01 08:44:13;;;;;;;12.85;5.07;;;;;;;1.21;61.58;98688.56;5063420;28;20032;-69
2022/04/01 08:46:39;;;;;;;13.30;5.18;;;;;;;1.13;62.40;98688.16;5063383;28;20070;-69
2022/04/01 08:49:06;;;;;;;12.48;4.70;;;;;;;1.28;62.70;98694.25;5062462;28;20039;-72
2022/04/01 08:51:32;;;;;;;19.98;6.47;;;;;;;1.33;63.29;98699.16;5065471;28;20032;-69
2022/04/01 08:53:57;;;;;;;15.65;4.78;;;;;;;1.30;63.78;98700.16;5064054;28;20047;-67
2022/04/01 08:56:23;;;;;;;14.52;5.35;;;;;;;1.19;65.23;98711.06;5063864;28;20419;-67
2022/04/01 08:58:48;;;;;;;10.57;5.22;;;;;;;1.07;66.75;98718.63;5062647;28;20486;-69
2022/04/01 09:01:14;;;;;;;12.65;6.00;;;;;;;1.10;67.34;98714.13;5063633;28;20029;-69
2022/04/01 09:03:41;;;;;;;11.98;5.05;;;;;;;1.11;66.72;98709.81;5062155;28;20044;-69
2022/04/01 09:06:10;;;;;;;29.15;5.60;;;;;;;1.16;66.51;98710.41;5063334;28;20040;-70
2022/04/01 09:08:40;;;;;;;12.73;5.13;;;;;;;1.24;66.23;98715.97;5062864;28;20516;-71
2022/04/01 09:11:08;;;;;;;13.80;6.25;;;;;;;1.42;65.57;98720.16;5063515;28;20044;-69
2022/04/01 09:13:33;;;;;;;12.60;5.97;;;;;;;1.40;64.46;98718.56;5063760;28;20039;-70
2022/04/01 09:16:00;;;;;;;13.27;5.10;;;;;;;1.32;63.16;98713.81;5062606;28;20490;-69
2022/04/01 09:18:40;;;;;;;12.85;6.00;;;;;;;1.27;63.44;98708.06;5061958;28;20059;-67
2022/04/01 09:21:07;;;;;;;14.68;6.00;;;;;;;1.42;63.90;98714.16;5063589;28;20414;-70
2022/04/01 09:23:33;;;;;;;16.70;5.28;;;;;;;1.49;63.24;98718.06;5063145;28;20122;-69
2022/04/01 09:25:58;;;;;;;15.50;5.05;;;;;;;1.53;63.00;98719.56;5065988;28;20502;-70
2022/04/01 09:28:29;;;;;;;12.63;5.45;;;;;;;1.62;61.73;98723.38;5051159;28;20431;-70
2022/04/01 09:31:06;;;;;;;14.07;5.57;;;;;;;1.54;60.94;98721.22;5069908;28;20465;-67
2022/04/01 09:33:42;;;;;;;10.57;5.30;;;;;;;1.55;61.37;98722.88;5067323;28;20040;-67
2022/04/01 09:36:07;;;;;;;14.07;5.95;;;;;;;1.44;62.78;98728.63;5068255;28;20064;-69
2022/04/01 09:38:35;;;;;;;13.43;5.22;;;;;;;1.45;63.47;98734.66;5069695;28;20448;-67
2022/04/01 09:41:03;;;;;;;14.85;4.97;;;;;;;1.57;63.90;98733.97;5070519;28;20033;-70
2022/04/01 09:43:32;;;;;;;14.85;6.22;;;;;;;1.43;65.24;98739.06;5062491;28;20028;-69
2022/04/01 09:46:04;;;;;;;13.70;5.53;;;;;;;1.35;66.76;98749.78;5043479;28;20016;-68
2022/04/01 09:48:39;;;;;;;10.82;5.38;;;;;;;1.38;67.88;98748.81;5062428;28;20032;-70
2022/04/01 09:51:04;;;;;;;10.77;5.47;;;;;;;1.24;69.05;98752.13;5062832;28;20041;-69
2022/04/01 09:53:29;;;;;;;9.70;5.18;;;;;;;1.26;69.06;98744.28;5062582;28;20032;-69
2022/04/01 09:55:55;;;;;;;14.80;6.32;;;;;;;1.19;68.83;98746.38;5062344;28;20033;-71
2022/04/01 09:58:22;;;;;;;11.65;5.68;;;;;;;1.29;69.07;98749.28;5063505;28;20028;-71
2022/04/01 10:00:48;;;;;;;11.20;4.97;;;;;;;1.42;69.04;98733.06;5060653;28;20044;-69
2022/04/01 10:03:15;;;;;;;14.80;5.25;;;;;;;1.32;69.16;98749.97;5059387;28;20042;-69
2022/04/01 10:05:41;;;;;;;9.95;5.07;;;;;;;1.22;69.60;98753.94;5040874;28;20729;-69
2022/04/01 10:08:09;;;;;;;10.63;4.35;;;;;;;1.18;69.71;98745.53;5062100;28;20067;-69
2022/04/01 10:10:36;;;;;;;11.85;4.85;;;;;;;1.18;71.42;98744.69;5061975;28;20028;-70
2022/04/01 10:13:09;;;;;;;11.15;5.32;;;;;;;1.12;70.00;98738.13;5062649;28;20028;-71
2022/04/01 10:15:37;;;;;;;12.40;5.40;;;;;;;1.14;70.29;98751.78;5061258;28;20032;-69
2022/04/01 10:18:03;;;;;;;10.50;4.35;;;;;;;1.06;69.73;98743.59;5062255;28;20040;-69
2022/04/01 10:20:33;;;;;;;13.50;5.63;;;;;;;1.20;70.43;98750.63;5062059;28;20052;-69
2022/04/01 10:23:04;;;;;;;16.02;4.40;;;;;;;1.28;70.66;98750.22;5062546;28;20040;-69
2022/04/01 10:25:36;;;;;;;17.10;6.43;;;;;;;1.37;71.79;98763.47;5041509;28;20107;-71
2022/04/01 10:28:04;;;;;;;11.82;5.50;;;;;;;1.32;71.75;98768.03;5061519;28;20028;-72
2022/04/01 10:30:31;;;;;;;17.92;4.43;;;;;;;1.28;71.03;98763.13;5062832;28;20024;-67
2022/04/01 10:32:57;;;;;;;14.27;5.18;;;;;;;1.25;72.34;98766.69;5061114;28;20511;-68
2022/04/01 10:35:38;;;;;;;14.23;5.10;;;;;;;1.25;70.86;98760.69;5060503;28;20123;-69
2022/04/01 10:38:06;;;;;;;10.00;4.75;;;;;;;1.52;72.03;98771.28;5052909;28;20048;-70
2022/04/01 10:40:39;;;;;;;9.25;4.28;;;;;;;1.55;70.36;98760.78;5063049;28;20142;-67
2022/04/01 10:43:11;;;;;;;11.45;5.03;;;;;;;1.67;71.24;98765.28;5061424;28;20462;-70
2022/04/01 10:45:38;;;;;;;12.77;4.93;;;;;;;1.84;69.36;98762.59;5053243;28;20974;-68
2022/04/01 10:51:38;;;;;;;10.07;4.85;;;;;;;2.03;68.64;98766.72;5059246;28;20135;-68
2022/04/01 10:54:12;;;;;;;16.60;6.35;;;;;;;2.08;67.11;98770.72;5055235;28;20079;-69
2022/04/01 10:56:41;;;;;;;10.90;4.95;;;;;;;1.98;67.95;98759.25;5056772;28;20042;-69
2022/04/01 10:59:14;;;;;;;12.23;4.55;;;;;;;2.06;67.28;98769.16;5060249;28;20028;-70
2022/04/01 11:02:03;;;;;;;19.75;5.38;;;;;;;2.09;67.40;98776.72;5061636;28;20745;-66
2022/04/01 11:04:43;;;;;;;13.05;4.55;;;;;;;2.06;68.09;98764.81;5054909;28;20128;-71
2022/04/01 11:07:14;;;;;;;16.85;5.57;;;;;;;2.32;67.06;98762.47;5060498;28;20912;-70
2022/04/01 11:09:50;;;;;;;14.88;5.93;;;;;;;2.40;66.94;98773.22;5042940;28;20108;-70
2022/04/01 11:12:15;;;;;;;8.13;4.07;;;;;;;2.45;65.48;98767.75;5061124;28;20942;-68
2022/04/01 11:14:59;;;;;;;9.43;4.13;;;;;;;2.42;65.90;98771.38;5059630;28;20493;-70
2022/04/01 11:17:51;;;;;;;38.03;7.63;;;;;;;2.30;65.84;98785.00;5060172;28;20588;-69
2022/04/01 11:20:21;;;;;;;11.70;4.38;;;;;;;2.12;66.27;98779.97;5042154;28;20071;-69
2022/04/01 11:22:52;;;;;;;16.58;4.97;;;;;;;2.08;66.62;98780.25;5043315;28;20112;-70
2022/04/01 11:25:23;;;;;;;10.77;4.60;;;;;;;2.10;66.83;98781.81;5061916;28;20037;-68
2022/04/01 11:27:50;;;;;;;21.70;5.18;;;;;;;2.10;66.75;98775.81;5043431;28;20190;-70
2022/04/01 11:30:20;;;;;;;11.35;4.53;;;;;;;2.17;64.96;98780.53;5046844;28;20402;-69
2022/04/01 11:32:48;;;;;;;19.38;6.25;;;;;;;2.18;65.62;98782.19;5061094;28;20111;-69
2022/04/01 11:35:15;;;;;;;17.75;5.78;;;;;;;2.26;65.41;98786.09;5057025;28;20543;-71
2022/04/01 11:37:43;;;;;;;26.25;7.28;;;;;;;2.50;64.88;98787.28;5061656;28;20143;-69
2022/04/01 11:40:10;;;;;;;22.92;6.00;;;;;;;2.59;63.97;98788.50;5061714;28;20537;-69
2022/04/01 11:42:58;;;;;;;11.07;4.90;;;;;;;2.64;64.37;98791.66;5039686;28;20033;-69
2022/04/01 11:45:27;;;;;;;8.18;3.78;;;;;;;2.76;63.53;98787.50;5059636;28;20060;-68
2022/04/01 11:47:53;;;;;;;;;;;;;;;2.63;64.18;98790.84;5060246;28;20552;-69
2022/04/01 11:50:22;;;;;;;7.50;3.40;;;;;;;2.63;64.42;98792.56;5054479;28;20381;-68